Data for 04/13/2017

Time Sea-Level Adjusted Pressure Absolute Pressure Temperature Relative Humidity Dew Point   
(mb) (inHg) (mb) (inHg) (C) (F) (%) (C) (F)
00:05 1014 29.94 843 24.89 8.6 47.4 62 1.8 35.2
00:10 1014 29.94 843 24.89 8.5 47.4 62 1.7 35.1
00:15 1014 29.94 843 24.89 8.5 47.3 62 1.6 34.9
00:20 1014 29.94 843 24.89 8.5 47.4 61 1.6 34.8
00:25 1014 29.94 843 24.89 8.5 47.3 62 1.7 35
00:30 1013 29.91 843 24.89 8.4 47.2 62 1.7 35
00:35 1013 29.91 843 24.89 8.4 47 62 1.5 34.7
00:40 1013 29.91 843 24.89 8.4 47.1 62 1.5 34.7
00:45 1013 29.91 842 24.86 8.3 47 62 1.4 34.5
00:50 1013 29.91 842 24.86 8.3 46.9 62 1.4 34.5
00:55 1013 29.91 842 24.86 8.2 46.8 62 1.4 34.5
01:00 1013 29.91 842 24.86 8.2 46.8 61 1.3 34.3
01:05 1013 29.91 842 24.86 8.2 46.8 61 1.3 34.3
01:10 1013 29.91 842 24.86 8.1 46.6 62 1.2 34.2
01:15 1013 29.91 842 24.86 8.1 46.6 62 1.2 34.2
01:20 1013 29.91 842 24.86 8.1 46.5 61 1.1 34
01:25 1013 29.91 842 24.86 8.1 46.6 61 1 33.7
01:30 1013 29.91 842 24.86 8.2 46.7 61 1.1 34.1
01:35 1013 29.91 842 24.86 8 46.4 62 1.1 34
01:40 1012 29.88 842 24.86 7.9 46.3 61 1 33.8
01:45 1012 29.88 842 24.86 8 46.4 60 0.8 33.5
01:50 1012 29.88 841 24.83 8.1 46.7 60 0.8 33.5
01:55 1012 29.88 841 24.83 8.2 46.7 59 0.7 33.2
02:00 1012 29.88 841 24.83 8.1 46.6 59 0.7 33.3
02:05 1012 29.88 841 24.83 8.2 46.7 59 0.8 33.4
02:10 1012 29.88 841 24.83 8.1 46.5 60 0.7 33.3
02:15 1012 29.88 841 24.83 8.1 46.5 60 0.9 33.6
02:20 1012 29.88 841 24.83 7.8 46 62 0.9 33.6
02:25 1012 29.88 841 24.83 7.7 45.8 61 0.7 33.3
02:30 1012 29.88 841 24.83 7.7 45.8 61 0.7 33.3
02:35 1012 29.88 841 24.83 7.6 45.7 61 0.6 33.1
02:40 1012 29.88 841 24.83 7.8 46 60 0.6 33.1
02:45 1012 29.88 841 24.83 7.9 46.1 60 0.5 32.9
02:50 1012 29.88 841 24.83 8 46.3 59 0.5 32.9
02:55 1012 29.88 841 24.83 8 46.3 60 0.8 33.4
03:00 1012 29.88 841 24.83 7.9 46.2 60 0.7 33.2
03:05 1012 29.88 841 24.83 7.8 46 60 0.6 33
03:10 1012 29.88 841 24.83 7.6 45.7 60 0.5 32.8
03:15 1012 29.88 841 24.83 7.6 45.6 61 0.6 33
03:20 1011 29.85 841 24.83 7.6 45.7 61 0.6 33
03:25 1012 29.88 841 24.83 7.5 45.5 61 0.6 33
03:30 1011 29.85 841 24.83 7.4 45.3 61 0.3 32.5
03:35 1011 29.85 841 24.83 7.4 45.3 60 0.2 32.3
03:40 1011 29.85 841 24.83 7.5 45.4 60 0.2 32.4
03:45 1011 29.85 841 24.83 7.4 45.2 60 0.2 32.3
03:50 1011 29.85 841 24.83 7.3 45.1 60 -0 31.9
03:55 1011 29.85 840 24.81 7.3 45.1 60 0 32
04:00 1011 29.85 840 24.81 7.1 44.9 61 0.2 32.3
04:05 1011 29.85 840 24.81 7 44.7 61 0 32.1
04:10 1011 29.85 840 24.81 7.1 44.7 60 -0.2 31.7
04:15 1011 29.85 840 24.81 7.3 45.2 58 -0.4 31.3
04:20 1011 29.85 840 24.81 7.4 45.3 58 -0.3 31.5
04:25 1011 29.85 840 24.81 7.5 45.5 58 -0.2 31.6
04:30 1011 29.85 840 24.81 7.5 45.4 57 -0.4 31.2
04:35 1011 29.85 840 24.81 7.5 45.6 56 -0.6 31
04:40 1011 29.85 840 24.81 7.6 45.7 57 -0.5 31.2
04:45 1011 29.85 840 24.81 7.6 45.6 56 -0.5 31
04:50 1010 29.83 840 24.81 7.7 45.8 56 -0.5 31.1
04:55 1010 29.83 840 24.81 7.6 45.6 57 -0.4 31.2
05:00 1010 29.83 840 24.81 7.5 45.6 57 -0.5 31.1
05:05 1010 29.83 839 24.78 7.6 45.7 55 -0.8 30.6
05:10 1010 29.83 839 24.78 7.8 46 54 -0.9 30.3
05:15 1010 29.83 839 24.78 8 46.3 54 -0.7 30.8
05:20 1010 29.83 839 24.78 7.8 46 55 -0.7 30.7
05:25 1010 29.83 839 24.78 7.7 45.8 55 -0.7 30.8
05:30 1010 29.83 839 24.78 7.7 45.9 54 -0.9 30.3
05:35 1010 29.83 839 24.78 7.9 46.2 52 -1.4 29.5
05:40 1010 29.83 839 24.78 8 46.4 52 -1.2 29.9
05:45 1010 29.83 839 24.78 8.1 46.6 51 -1.3 29.7
05:50 1009 29.8 839 24.78 8.2 46.7 51 -1.2 29.8
05:55 1010 29.83 839 24.78 8.2 46.7 52 -1.2 29.8
06:00 1009 29.8 839 24.78 8.1 46.5 52 -1.3 29.7
06:05 1009 29.8 839 24.78 8.1 46.5 51 -1.3 29.6
06:10 1009 29.8 839 24.78 8.1 46.6 52 -1.1 30.1
06:15 1009 29.8 839 24.78 8 46.4 53 -1 30.2
06:20 1009 29.8 839 24.78 8 46.5 53 -1 30.1
06:25 1009 29.8 838 24.75 8.1 46.5 53 -0.8 30.5
06:30 1009 29.8 838 24.75 8 46.5 53 -1 30.1
06:35 1009 29.8 838 24.75 8 46.5 53 -0.9 30.4
06:40 1009 29.8 838 24.75 7.9 46.2 52 -1.3 29.7
06:45 1009 29.8 839 24.78 8 46.5 52 -1.3 29.7
06:50 1009 29.8 839 24.78 8.1 46.5 51 -1.4 29.5
06:55 1009 29.8 839 24.78 8.2 46.7 51 -1.3 29.6
07:00 1009 29.8 839 24.78 8.2 46.8 50 -1.5 29.3
07:05 1009 29.8 839 24.78 8.3 47 50 -1.4 29.4
07:10 1009 29.8 839 24.78 8.4 47 50 -1.5 29.3
07:15 1009 29.8 839 24.78 8.5 47.3 49 -1.7 29
07:20 1009 29.8 839 24.78 8.6 47.6 49 -1.5 29.4
07:25 1009 29.8 839 24.78 8.7 47.6 49 -1.5 29.3
07:30 1009 29.8 839 24.78 8.9 47.9 47 -1.7 28.9
07:35 1009 29.8 839 24.78 9 48.2 48 -1.5 29.3
07:40 1009 29.8 839 24.78 9.2 48.6 46 -1.7 29
07:45 1009 29.8 839 24.78 9.6 49.2 44 -2 28.4
07:50 1009 29.8 839 24.78 9.9 49.8 44 -1.9 28.7
07:55 1009 29.8 839 24.78 10.1 50.1 43 -1.9 28.6
08:00 1009 29.8 839 24.78 10.3 50.5 41 -2.2 28
08:05 1009 29.8 839 24.78 10.6 51 41 -2.2 28
08:10 1009 29.8 839 24.78 10.8 51.4 40 -2.3 27.8
08:15 1009 29.8 839 24.78 11.1 51.9 38 -2.8 27
08:20 1009 29.8 839 24.78 11.5 52.6 37 -2.8 27
08:25 1009 29.8 839 24.78 11.7 53.1 35 -3.1 26.5
08:30 1009 29.8 839 24.78 12.4 54.2 34 -3.2 26.2
08:35 1010 29.83 839 24.78 12.6 54.6 33 -3.2 26.2
08:40 1009 29.8 839 24.78 12.8 55 33 -3 26.7
08:45 1009 29.8 839 24.78 12.9 55.2 32 -3.3 26.1
08:50 1009 29.8 839 24.78 13.6 56.4 30 -3.4 25.8
08:55 1009 29.8 839 24.78 14.2 57.5 29 -3.5 25.6
09:00 1009 29.8 838 24.75 14.6 58.2 28 -3.6 25.5
09:05 1009 29.8 838 24.75 14.9 58.8 28 -3.6 25.6
09:10 1009 29.8 838 24.75 15.4 59.8 26 -4 24.9
09:15 1009 29.8 838 24.75 15.7 60.3 26 -3.7 25.3
09:20 1009 29.8 838 24.75 16.1 61 24 -4.2 24.4
09:25 1009 29.8 838 24.75 16.6 61.9 24 -4.1 24.7
09:30 1009 29.8 838 24.75 16.9 62.4 24 -3.8 25.2
09:35 1009 29.8 838 24.75 17 62.6 22 -4.5 23.9
09:40 1009 29.8 838 24.75 17.5 63.5 22 -4.3 24.3
09:45 1009 29.8 838 24.75 17.7 63.8 21 -5.1 22.8
09:50 1009 29.8 838 24.75 18.3 64.9 20 -5.2 22.7
09:55 1009 29.8 838 24.75 18.5 65.3 21 -4.2 24.4
10:00 1009 29.8 838 24.75 18.9 65.9 20 -4.5 23.8
10:05 1009 29.8 838 24.75 18.5 65.4 18 -6 21.3
10:10 1009 29.8 838 24.75 18.5 65.2 18 -6.3 20.7
10:15 1009 29.8 838 24.75 19.2 66.5 17 -6.3 20.6
10:20 1009 29.8 838 24.75 18.9 66 16 -7.5 18.5
10:25 1009 29.8 838 24.75 19.3 66.8 17 -6.3 20.7
10:30 1009 29.8 838 24.75 18.8 65.9 16 -7.8 17.9
10:35 1008 29.77 838 24.75 18.7 65.7 17 -7.1 19.3
10:40 1008 29.77 838 24.75 18.9 66.1 16 -7 19.5
10:45 1008 29.77 838 24.75 19 66.2 17 -6.5 20.2
10:50 1008 29.77 838 24.75 19.1 66.4 16 -7.5 18.6
10:55 1008 29.77 838 24.75 19.3 66.7 18 -5.7 21.8
11:00 1008 29.77 837 24.72 19.1 66.4 16 -7.5 18.4
11:05 1008 29.77 837 24.72 19.1 66.4 16 -7.5 18.5
11:10 1008 29.77 837 24.72 18.9 66 16 -7.8 18
11:15 1008 29.77 837 24.72 18.7 65.6 16 -7.3 18.8
11:20 1008 29.77 837 24.72 18.9 65.9 15 -8.2 17.3
11:25 1008 29.77 837 24.72 18.6 65.5 15 -8.2 17.3
11:30 1008 29.77 837 24.72 18.4 65.2 16 -7.9 17.9
11:35 1008 29.77 837 24.72 18.6 65.6 15 -8 17.5
11:40 1008 29.77 837 24.72 18.9 66.1 16 -7.3 18.9
11:45 1008 29.77 837 24.72 19.2 66.6 15 -7.8 17.9
11:50 1008 29.77 837 24.72 19.1 66.4 15 -8.1 17.4
11:55 1008 29.77 837 24.72 19.1 66.4 15 -8.3 17.1
12:00 1008 29.77 837 24.72 19.2 66.5 15 -7.8 17.9
12:05 1008 29.77 837 24.72 19.4 66.8 16 -7.3 18.8
12:10 1008 29.77 837 24.72 19.6 67.3 14 -8.3 17
12:15 1007 29.74 837 24.72 19.4 66.9 14 -8.5 16.6
12:20 1007 29.74 837 24.72 19.5 67.1 14 -8.6 16.6
12:25 1007 29.74 837 24.72 19.3 66.8 14 -8.7 16.3
12:30 1007 29.74 836 24.69 19.1 66.4 14 -8.6 16.4
12:35 1007 29.74 836 24.69 19.4 66.9 14 -8.9 16
12:40 1007 29.74 836 24.69 19.4 66.9 15 -7.8 18
12:45 1007 29.74 836 24.69 19.7 67.4 14 -8.3 17.1
12:50 1007 29.74 836 24.69 19.6 67.2 14 -8.6 16.4
12:55 1007 29.74 836 24.69 19.7 67.5 14 -8.4 16.9
13:00 1007 29.74 836 24.69 19.6 67.3 13 -9 15.7
13:05 1007 29.74 836 24.69 19.6 67.3 14 -8.6 16.5
13:10 1007 29.74 836 24.69 19.8 67.7 13 -9.7 14.5
13:15 1006 29.71 836 24.69 19.6 67.2 14 -8.1 17.4
13:20 1006 29.71 836 24.69 19.9 67.8 15 -7.6 18.2
13:25 1006 29.71 836 24.69 20.2 68.4 14 -7.6 18.3
13:30 1006 29.71 835 24.66 20.4 68.7 15 -7.2 19.1
13:35 1006 29.71 835 24.66 20.2 68.3 14 -7.9 17.7
13:40 1006 29.71 835 24.66 20.5 69 14 -7.4 18.6
13:45 1006 29.71 835 24.66 20.8 69.4 13 -8.1 17.5
13:50 1006 29.71 835 24.66 20.9 69.6 14 -7.4 18.6
13:55 1006 29.71 835 24.66 21 69.8 14 -7.7 18.1
14:00 1006 29.71 835 24.66 20.7 69.2 14 -7.3 18.9
14:05 1006 29.71 835 24.66 20.5 69 14 -7.6 18.3
14:10 1006 29.71 835 24.66 20.3 68.5 14 -8 17.6
14:15 1006 29.71 835 24.66 20.2 68.3 15 -7.1 19.1
14:20 1006 29.71 835 24.66 20.2 68.4 14 -7.8 17.9
14:25 1006 29.71 835 24.66 20 68.1 14 -8 17.6
14:30 1006 29.71 835 24.66 20.8 69.5 14 -7.4 18.7
14:35 1005 29.68 835 24.66 20.9 69.5 14 -7.5 18.6
14:40 1005 29.68 835 24.66 21 69.8 14 -7 19.4
14:45 1005 29.68 835 24.66 20.2 68.4 15 -7 19.3
14:50 1005 29.68 834 24.63 20 67.9 14 -7.9 17.8
14:55 1005 29.68 834 24.63 20.1 68.1 14 -7.9 17.7
15:00 1005 29.68 834 24.63 20 68.1 14 -8.1 17.4
15:05 1005 29.68 834 24.63 20.1 68.1 15 -7.2 19.1
15:10 1005 29.68 834 24.63 20.2 68.3 14 -8.1 17.4
15:15 1005 29.68 834 24.63 20 68 15 -7.5 18.5
15:20 1005 29.68 834 24.63 19.9 67.8 15 -7.6 18.4
15:25 1005 29.68 834 24.63 19.8 67.6 15 -7.4 18.7
15:30 1005 29.68 834 24.63 20.1 68.1 15 -7.2 19.1
15:35 1005 29.68 834 24.63 20.3 68.5 15 -7.4 18.6
15:40 1005 29.68 834 24.63 20.3 68.6 15 -6.9 19.5
15:45 1005 29.68 834 24.63 20.2 68.4 15 -7.3 18.9
15:50 1005 29.68 834 24.63 20.2 68.3 14 -7.9 17.9
15:55 1005 29.68 834 24.63 20.4 68.6 15 -6.8 19.8
16:00 1004 29.65 834 24.63 20.6 69.2 15 -6.5 20.3
16:05 1004 29.65 834 24.63 20.9 69.6 14 -7.1 19.2
16:10 1004 29.65 833 24.6 21.1 69.9 14 -7.7 18.1
16:15 1004 29.65 833 24.6 20.7 69.3 15 -6.8 19.7
16:20 1004 29.65 834 24.63 20.5 68.9 15 -6.5 20.2
16:25 1004 29.65 834 24.63 20.5 68.8 16 -6.2 20.9
16:30 1004 29.65 833 24.6 20.5 68.8 15 -6.8 19.7
16:35 1004 29.65 833 24.6 20.1 68.3 15 -7.3 18.9
16:40 1004 29.65 833 24.6 19.8 67.7 19 -4.4 24
16:45 1004 29.65 834 24.63 19.3 66.8 19 -4.8 23.4
16:50 1004 29.65 834 24.63 19.3 66.8 20 -4.1 24.5
16:55 1004 29.65 833 24.6 20.1 68.2 18 -4.6 23.7
17:00 1004 29.65 833 24.6 20.5 68.9 18 -4.6 23.6
17:05 1004 29.65 833 24.6 20.5 68.9 18 -4.4 24
17:10 1004 29.65 833 24.6 20.6 69 17 -5.3 22.5
17:15 1004 29.65 833 24.6 20.7 69.3 16 -5.6 22
17:20 1004 29.65 833 24.6 20.5 69 18 -4.6 23.8
17:25 1004 29.65 833 24.6 20.1 68.3 18 -5.1 22.8
17:30 1004 29.65 833 24.6 19.7 67.4 17 -5.7 21.8
17:35 1004 29.65 833 24.6 19.4 66.9 17 -5.9 21.3
17:40 1004 29.65 833 24.6 19.1 66.4 19 -5.1 22.8
17:45 1004 29.65 834 24.63 18.9 66 18 -6.1 21
17:50 1004 29.65 834 24.63 19 66.2 18 -5.9 21.4
17:55 1004 29.65 834 24.63 18.9 66 18 -5.5 22.1
18:00 1004 29.65 834 24.63 18.8 65.9 19 -5.4 22.4
18:05 1004 29.65 834 24.63 18.8 65.8 19 -5.1 22.8
18:10 1004 29.65 834 24.63 18.5 65.2 21 -4.3 24.2
18:15 1005 29.68 834 24.63 18.1 64.5 22 -3.9 24.9
18:20 1005 29.68 834 24.63 17.7 63.9 26 -2.1 28.2
18:25 1005 29.68 834 24.63 15.1 59.2 34 -0.7 30.8
18:30 1005 29.68 834 24.63 13.5 56.2 38 -0.5 31.1
18:35 1005 29.68 834 24.63 12.9 55.1 40 -0.5 31.2
18:40 1005 29.68 834 24.63 12.7 54.8 40 -0.5 31
18:45 1005 29.68 834 24.63 12.6 54.8 40 -0.4 31.2
18:50 1005 29.68 834 24.63 12.5 54.4 41 -0.4 31.3
18:55 1005 29.68 835 24.66 12.3 54.2 42 -0.2 31.7
19:00 1006 29.71 835 24.66 12.3 54.1 43 0.2 32.3
19:05 1006 29.71 835 24.66 12.1 53.8 45 0.6 33.1
19:10 1006 29.71 835 24.66 11.7 53.1 48 1.1 34
19:15 1006 29.71 835 24.66 11.1 51.9 51 1.2 34.2
19:20 1006 29.71 835 24.66 10.4 50.8 53 1.3 34.3
19:25 1006 29.71 835 24.66 10 49.9 53 0.9 33.7
19:30 1006 29.71 835 24.66 9.8 49.6 53 0.7 33.2
19:35 1006 29.71 835 24.66 9.6 49.2 53 0.4 32.8
19:40 1006 29.71 835 24.66 9.5 49.1 53 0.3 32.6
19:45 1006 29.71 835 24.66 9.4 49 53 0.3 32.6
19:50 1006 29.71 836 24.69 9.4 48.9 53 0.3 32.5
19:55 1006 29.71 835 24.66 9.3 48.7 53 0.2 32.4
20:00 1006 29.71 836 24.69 9.2 48.5 54 0.3 32.5
20:05 1006 29.71 835 24.66 9.1 48.3 54 0.3 32.5
20:10 1006 29.71 836 24.69 9 48.1 55 0.4 32.7
20:15 1007 29.74 836 24.69 8.8 47.8 56 0.4 32.8
20:20 1007 29.74 836 24.69 8.8 47.8 55 0.4 32.7
20:25 1007 29.74 836 24.69 8.9 48 54 0 32.1
20:30 1007 29.74 836 24.69 8.8 47.8 53 -0.2 31.6
20:35 1007 29.74 836 24.69 8.6 47.5 54 -0.1 31.7
20:40 1007 29.74 836 24.69 8.5 47.3 54 -0.2 31.6
20:45 1007 29.74 836 24.69 8.3 47 55 -0.2 31.7
20:50 1007 29.74 836 24.69 8.2 46.7 56 -0.1 31.8
20:55 1008 29.77 837 24.72 7.9 46.2 56 -0.3 31.5
21:00 1008 29.77 837 24.72 7.8 46.1 57 -0 31.9
21:05 1008 29.77 837 24.72 7.5 45.6 58 -0.1 31.9
21:10 1008 29.77 838 24.75 7.3 45.1 59 -0.1 31.8
21:15 1009 29.8 838 24.75 7.2 45 59 -0.2 31.7
21:20 1009 29.8 838 24.75 7.2 45 62 0.5 33
21:25 1009 29.8 838 24.75 6.9 44.4 69 1.6 34.9
21:30 1009 29.8 838 24.75 6.5 43.7 72 1.9 35.5
21:35 1009 29.8 838 24.75 6.1 43 74 1.8 35.2
21:40 1009 29.8 838 24.75 5.7 42.2 77 1.9 35.4
21:45 1009 29.8 838 24.75 5.4 41.7 79 2 35.6
21:50 1009 29.8 839 24.78 5.1 41.2 79 1.9 35.3
21:55 1009 29.8 839 24.78 5 41.1 82 2.2 36
22:00 1010 29.83 839 24.78 4.9 40.8 85 2.6 36.6
22:05 1009 29.8 839 24.78 4.6 40.3 85 2.3 36.1
22:10 1009 29.8 839 24.78 4.2 39.6 86 2 35.6
22:15 1009 29.8 839 24.78 4 39.2 87 2 35.6
22:20 1010 29.83 839 24.78 3.9 39 88 2 35.7
22:25 1010 29.83 839 24.78 3.9 39.1 88 2.1 35.8
22:30 1010 29.83 839 24.78 3.9 39 88 2 35.6
22:35 1010 29.83 839 24.78 3.8 38.8 88 2 35.6
22:40 1010 29.83 839 24.78 3.7 38.6 88 1.9 35.4
22:45 1010 29.83 839 24.78 3.4 38.1 87 1.4 34.6
22:50 1010 29.83 839 24.78 3 37.3 87 1 33.8
22:55 1010 29.83 839 24.78 2.4 36.4 87 0.5 32.9
23:00 1010 29.83 839 24.78 1.9 35.3 89 0.2 32.3
23:05 1010 29.83 839 24.78 1.4 34.5 89 -0.2 31.6
23:10 1010 29.83 839 24.78 1 33.8 90 -0.4 31.3
23:15 1010 29.83 839 24.78 0.8 33.4 91 -0.5 31.1
23:20 1010 29.83 839 24.78 0.7 33.3 92 -0.5 31.1
23:25 1010 29.83 839 24.78 0.7 33.2 92 -0.5 31.1
23:30 1010 29.83 839 24.78 0.6 33.1 92 -0.5 31.1
23:35 1010 29.83 839 24.78 0.5 33 92 -0.6 31
23:40 1010 29.83 839 24.78 0.5 33 92 -0.5 31
23:45 1010 29.83 839 24.78 0.5 32.9 93 -0.5 31.1
23:50 1010 29.83 839 24.78 0.6 33 93 -0.5 31.2
23:55 1010 29.83 839 24.78 0.6 33 93 -0.5 31.2
24:00 1010 29.83 839 24.78 0.7 33.2 93 -0.4 31.3